Time;durP1;ratioP1;P1;durP2;ratioP2;P2;SDS_P1;SDS_P2;PMS_P1;PMS_P2;Temp;Humidity;BMP_temperature;BMP_pressure;BME280_temperature;BME280_humidity;BME280_pressure;Samples;Min_cycle;Max_cycle;Signal;HPM_P1;HPM_P2
2020/12/08 00:00:31;;;;;;;10.07;6.60;;;5.70;90.60;;;;;;5029831;28;20029;-69
2020/12/08 00:02:57;;;;;;;9.43;6.20;;;5.70;90.30;;;;;;5029983;28;20414;-66
2020/12/08 00:05:23;;;;;;;11.17;7.13;;;5.70;90.30;;;;;;5030394;28;20038;-67
2020/12/08 00:07:50;;;;;;;11.10;6.70;;;5.70;90.30;;;;;;5029782;28;20463;-68
2020/12/08 00:10:19;;;;;;;10.13;6.73;;;5.70;90.30;;;;;;5030441;28;20406;-67
2020/12/08 00:12:49;;;;;;;10.23;6.70;;;5.70;90.30;;;;;;5028384;28;20030;-69
2020/12/08 00:15:15;;;;;;;10.47;6.37;;;5.70;90.30;;;;;;5029874;28;20092;-68
2020/12/08 00:17:42;;;;;;;10.20;6.33;;;5.70;90.30;;;;;;5030428;28;20034;-69
2020/12/08 00:20:09;;;;;;;10.03;6.43;;;5.70;90.30;;;;;;5029887;28;20065;-68
2020/12/08 00:22:35;;;;;;;9.57;6.00;;;5.60;90.20;;;;;;5029160;28;20030;-68
2020/12/08 00:25:02;;;;;;;10.40;6.70;;;5.70;90.20;;;;;;5011934;28;20516;-71
2020/12/08 00:27:28;;;;;;;10.40;6.87;;;5.60;90.20;;;;;;5030131;28;20512;-69
2020/12/08 00:29:54;;;;;;;10.07;6.57;;;5.60;90.20;;;;;;5012358;28;20037;-70
2020/12/08 00:32:19;;;;;;;8.87;6.03;;;5.60;90.20;;;;;;5027779;28;20068;-68
2020/12/08 00:34:45;;;;;;;9.93;6.33;;;5.60;90.40;;;;;;5028432;28;20140;-69
2020/12/08 00:37:11;;;;;;;10.63;6.30;;;5.60;90.20;;;;;;5030821;28;20111;-70
2020/12/08 00:39:36;;;;;;;10.23;6.77;;;5.60;90.20;;;;;;5029261;28;20096;-70
2020/12/08 00:42:06;;;;;;;10.00;6.07;;;5.60;90.10;;;;;;5029318;28;20029;-71
2020/12/08 00:44:32;;;;;;;9.83;5.93;;;5.60;90.10;;;;;;5027960;28;20494;-71
2020/12/08 00:46:58;;;;;;;9.77;6.20;;;5.60;90.10;;;;;;5029781;28;20030;-71
2020/12/08 00:49:24;;;;;;;10.03;6.50;;;5.60;90.10;;;;;;5029483;28;20568;-72
2020/12/08 00:51:56;;;;;;;11.10;6.47;;;5.60;90.10;;;;;;5011757;28;20060;-71
2020/12/08 00:54:22;;;;;;;9.47;6.23;;;5.60;90.00;;;;;;5028651;28;20040;-70
2020/12/08 00:56:48;;;;;;;12.40;6.03;;;5.60;90.00;;;;;;5027984;28;20038;-70
2020/12/08 00:59:14;;;;;;;10.07;5.87;;;5.60;90.10;;;;;;5012094;28;20064;-71
2020/12/08 01:01:45;;;;;;;10.70;6.03;;;5.60;90.00;;;;;;5027424;28;20041;-70
2020/12/08 01:04:12;;;;;;;9.37;6.23;;;5.60;90.00;;;;;;5028461;28;20033;-71
2020/12/08 01:06:40;;;;;;;8.93;5.70;;;5.60;90.00;;;;;;5027979;28;20034;-71
2020/12/08 01:09:07;;;;;;;9.57;6.10;;;5.60;90.00;;;;;;5028347;28;20045;-71
2020/12/08 01:11:41;;;;;;;9.00;5.73;;;5.60;90.00;;;;;;5029423;28;20124;-70
2020/12/08 01:14:08;;;;;;;8.57;5.70;;;5.60;90.00;;;;;;5029366;28;20403;-71
2020/12/08 01:16:33;;;;;;;9.30;5.80;;;5.60;89.90;;;;;;5028563;28;20116;-70
2020/12/08 01:19:04;;;;;;;8.65;5.55;;;5.60;90.00;;;;;;5028250;28;20042;-71
2020/12/08 01:21:29;;;;;;;8.43;5.40;;;5.60;89.80;;;;;;5028282;28;20079;-71
2020/12/08 01:23:55;;;;;;;8.47;5.53;;;5.60;89.80;;;;;;5029073;28;20041;-71
2020/12/08 01:26:23;;;;;;;8.43;5.63;;;5.60;89.90;;;;;;5011469;28;20038;-71
2020/12/08 01:28:50;;;;;;;10.20;6.17;;;5.60;90.00;;;;;;5028105;28;20053;-71
2020/12/08 01:31:17;;;;;;;8.53;5.60;;;5.60;90.00;;;;;;5011678;28;20509;-71
2020/12/08 01:33:44;;;;;;;9.23;5.83;;;5.60;90.00;;;;;;5028329;28;20480;-71
2020/12/08 01:36:10;;;;;;;9.93;6.03;;;5.60;89.80;;;;;;5031337;28;20410;-72
2020/12/08 01:38:36;;;;;;;10.10;6.20;;;5.60;89.80;;;;;;5033418;28;20050;-74
2020/12/08 01:41:02;;;;;;;9.40;5.73;;;5.60;89.80;;;;;;5031552;28;20037;-75
2020/12/08 01:43:28;;;;;;;8.87;5.93;;;5.60;89.80;;;;;;5030487;28;20498;-74
2020/12/08 01:45:55;;;;;;;9.10;5.67;;;5.60;89.80;;;;;;5031650;28;20034;-75
2020/12/08 01:48:21;;;;;;;9.60;6.23;;;5.60;89.70;;;;;;5031084;28;20080;-74
2020/12/08 01:50:47;;;;;;;9.73;6.13;;;5.60;89.60;;;;;;5031754;28;20380;-74
2020/12/08 01:53:15;;;;;;;9.37;5.80;;;5.70;89.70;;;;;;5030726;28;20057;-74
2020/12/08 01:55:48;;;;;;;10.33;6.20;;;5.60;89.60;;;;;;5031223;28;20030;-75
2020/12/08 01:58:21;;;;;;;10.17;6.73;;;5.60;89.50;;;;;;5014869;28;20037;-75
2020/12/08 02:00:50;;;;;;;9.70;6.00;;;5.60;89.50;;;;;;5030848;28;20044;-74
2020/12/08 02:03:17;;;;;;;10.90;6.60;;;5.60;89.50;;;;;;5030658;28;20041;-74
2020/12/08 02:05:44;;;;;;;9.53;6.10;;;5.60;89.60;;;;;;5030532;28;20033;-74
2020/12/08 02:08:10;;;;;;;10.87;6.20;;;5.60;89.40;;;;;;5031198;28;20041;-75
2020/12/08 02:10:40;;;;;;;10.63;7.10;;;5.60;89.50;;;;;;5030791;28;20048;-74
2020/12/08 02:13:10;;;;;;;8.97;5.77;;;5.60;89.50;;;;;;5030325;28;20124;-74
2020/12/08 02:15:39;;;;;;;8.97;5.67;;;5.60;89.50;;;;;;5030703;28;20041;-74
2020/12/08 02:18:05;;;;;;;9.77;6.47;;;5.60;89.60;;;;;;5030551;28;20264;-74
2020/12/08 02:20:33;;;;;;;9.87;6.50;;;5.70;89.50;;;;;;5032371;28;20041;-74
2020/12/08 02:23:01;;;;;;;10.30;6.90;;;5.60;89.30;;;;;;5029983;28;20444;-74
2020/12/08 02:25:29;;;;;;;9.53;6.40;;;5.60;89.20;;;;;;5030864;28;20465;-74
2020/12/08 02:27:58;;;;;;;10.60;6.73;;;5.60;89.20;;;;;;5030298;28;20052;-74
2020/12/08 02:30:24;;;;;;;10.07;6.60;;;5.60;89.20;;;;;;5032189;28;20033;-74
2020/12/08 02:32:50;;;;;;;9.37;6.37;;;5.60;89.10;;;;;;5030096;28;20052;-74
2020/12/08 02:35:16;;;;;;;9.70;6.47;;;5.60;89.20;;;;;;5030264;28;20033;-74
2020/12/08 02:37:42;;;;;;;11.17;6.70;;;5.60;89.30;;;;;;5033161;28;20525;-77
2020/12/08 02:40:08;;;;;;;9.67;6.30;;;5.50;89.30;;;;;;5030785;28;20041;-77
2020/12/08 02:42:37;;;;;;;9.27;5.97;;;5.50;89.20;;;;;;5030517;28;20093;-77
2020/12/08 02:45:03;;;;;;;10.03;6.57;;;5.60;89.30;;;;;;5030225;28;20034;-77
2020/12/08 02:47:30;;;;;;;9.50;5.93;;;5.50;89.20;;;;;;5029905;28;20092;-77
2020/12/08 02:49:56;;;;;;;9.43;6.20;;;5.60;89.20;;;;;;5014009;28;20041;-77
2020/12/08 02:52:22;;;;;;;11.37;6.63;;;5.60;89.20;;;;;;5029373;28;20095;-77
2020/12/08 02:54:49;;;;;;;9.93;6.23;;;5.60;89.20;;;;;;5030295;28;20037;-77
2020/12/08 02:57:15;;;;;;;10.93;6.10;;;5.60;89.00;;;;;;5013925;28;20044;-77
2020/12/08 02:59:41;;;;;;;10.47;6.60;;;5.60;89.00;;;;;;5029638;28;20030;-77
2020/12/08 03:02:11;;;;;;;10.63;6.50;;;5.60;89.10;;;;;;5029453;28;20124;-77
2020/12/08 03:04:44;;;;;;;10.00;6.83;;;5.60;89.30;;;;;;5029569;28;20533;-76
2020/12/08 03:07:13;;;;;;;9.57;6.63;;;5.50;89.20;;;;;;5030059;28;20033;-77
2020/12/08 03:09:39;;;;;;;10.70;6.63;;;5.60;89.10;;;;;;5013089;28;20456;-77
2020/12/08 03:12:09;;;;;;;9.57;6.17;;;5.60;89.00;;;;;;5029382;28;20049;-77
2020/12/08 03:14:36;;;;;;;10.20;6.67;;;5.60;89.00;;;;;;5013559;28;20057;-76
2020/12/08 03:17:05;;;;;;;9.67;6.10;;;5.60;89.10;;;;;;5029835;28;20494;-76
2020/12/08 03:19:31;;;;;;;10.67;6.97;;;5.60;88.90;;;;;;5029907;28;20120;-77
2020/12/08 03:21:57;;;;;;;9.60;6.33;;;5.60;88.80;;;;;;5028647;28;20037;-77
2020/12/08 03:24:37;;;;;;;11.17;7.00;;;5.60;88.80;;;;;;5029772;28;20044;-77
2020/12/08 03:27:03;;;;;;;11.50;7.17;;;5.60;89.00;;;;;;5029363;28;20053;-77
2020/12/08 03:29:29;;;;;;;9.93;6.47;;;5.60;89.00;;;;;;5029490;28;20064;-77
2020/12/08 03:31:58;;;;;;;9.53;6.43;;;5.60;88.80;;;;;;5028618;28;20037;-77
2020/12/08 03:34:24;;;;;;;10.43;6.97;;;5.60;88.80;;;;;;4996940;28;20441;-77
2020/12/08 03:36:50;;;;;;;10.17;6.53;;;5.60;88.80;;;;;;5030133;28;20037;-68
2020/12/08 03:39:16;;;;;;;10.43;6.70;;;5.60;88.70;;;;;;5029231;28;20041;-68
2020/12/08 03:41:43;;;;;;;9.80;6.47;;;5.60;88.70;;;;;;5029392;28;20041;-68
2020/12/08 03:44:10;;;;;;;11.10;7.07;;;5.60;88.70;;;;;;5029271;28;20411;-68
2020/12/08 03:46:36;;;;;;;10.27;6.97;;;5.60;88.80;;;;;;5029440;28;20045;-68
2020/12/08 03:49:02;;;;;;;10.80;7.47;;;5.50;88.60;;;;;;5030752;28;20041;-69
2020/12/08 03:51:30;;;;;;;10.30;6.87;;;5.60;88.60;;;;;;5029190;28;20040;-68
2020/12/08 03:54:02;;;;;;;10.07;6.93;;;5.50;88.60;;;;;;5029069;28;20033;-68
2020/12/08 03:56:34;;;;;;;10.80;6.78;;;5.60;88.60;;;;;;5012737;28;20116;-68
2020/12/08 03:59:05;;;;;;;10.77;7.33;;;5.50;88.70;;;;;;5030571;28;20140;-68
2020/12/08 04:01:31;;;;;;;12.00;7.80;;;5.50;88.70;;;;;;5012320;28;20043;-68
2020/12/08 04:03:57;;;;;;;10.90;7.23;;;5.50;88.70;;;;;;5012251;28;20544;-68
2020/12/08 04:06:23;;;;;;;11.53;7.33;;;5.50;88.80;;;;;;5028985;28;20034;-68
2020/12/08 04:08:49;;;;;;;11.00;7.40;;;5.50;88.70;;;;;;5028639;28;20042;-69
2020/12/08 04:11:20;;;;;;;;;;;5.50;88.70;;;;;;5028400;28;20061;-68
2020/12/08 04:13:49;;;;;;;17.27;7.60;;;5.50;88.80;;;;;;5028396;28;19913;-68
2020/12/08 04:16:15;;;;;;;11.47;7.83;;;5.50;88.70;;;;;;5029559;28;20036;-68
2020/12/08 04:18:44;;;;;;;11.30;7.30;;;5.50;88.70;;;;;;5029277;28;20037;-67
2020/12/08 04:21:10;;;;;;;11.93;7.77;;;5.50;88.70;;;;;;5013358;28;20033;-67
2020/12/08 04:23:37;;;;;;;11.70;7.80;;;5.50;88.70;;;;;;5028530;28;20037;-68
2020/12/08 04:26:09;;;;;;;10.33;7.20;;;5.50;88.70;;;;;;5013629;28;20450;-71
2020/12/08 04:28:36;;;;;;;11.90;8.07;;;5.50;88.70;;;;;;5029480;28;20067;-71
2020/12/08 04:31:02;;;;;;;12.37;7.60;;;5.50;88.80;;;;;;5012845;28;20033;-71
2020/12/08 04:33:28;;;;;;;12.23;7.53;;;5.50;88.80;;;;;;5030024;28;20048;-70
2020/12/08 04:35:53;;;;;;;11.57;8.03;;;5.50;88.90;;;;;;5030201;28;20064;-70
2020/12/08 04:38:19;;;;;;;13.73;7.83;;;5.50;88.80;;;;;;5030741;28;20061;-69
2020/12/08 04:40:48;;;;;;;13.47;8.10;;;5.50;88.70;;;;;;5030084;28;20458;-71
2020/12/08 04:43:15;;;;;;;13.40;7.90;;;5.50;88.80;;;;;;5029133;28;20041;-71
2020/12/08 04:45:41;;;;;;;11.90;7.77;;;5.50;88.70;;;;;;5030118;28;20037;-71
2020/12/08 04:48:07;;;;;;;11.60;7.50;;;5.50;88.70;;;;;;5029521;28;20119;-71
2020/12/08 04:50:33;;;;;;;12.20;8.20;;;5.50;88.70;;;;;;5030078;28;20037;-71
2020/12/08 04:53:00;;;;;;;13.87;8.23;;;5.50;88.70;;;;;;5029625;28;20038;-70
2020/12/08 04:55:26;;;;;;;12.07;8.37;;;5.50;88.70;;;;;;5028398;28;20234;-70
2020/12/08 04:57:55;;;;;;;12.17;8.20;;;5.50;88.80;;;;;;5030049;28;20134;-70
2020/12/08 05:00:21;;;;;;;12.30;8.03;;;5.50;88.80;;;;;;5011722;28;20042;-71
2020/12/08 05:02:53;;;;;;;13.23;8.43;;;5.50;89.30;;;;;;5011143;28;20048;-70
2020/12/08 05:05:20;;;;;;;13.00;8.30;;;5.50;88.80;;;;;;5029352;28;20443;-69
2020/12/08 05:07:47;;;;;;;12.90;8.43;;;5.50;88.70;;;;;;5029307;28;20026;-71
2020/12/08 05:10:13;;;;;;;13.67;8.70;;;5.40;88.60;;;;;;5033551;28;20102;-69
2020/12/08 05:12:39;;;;;;;14.03;9.00;;;5.50;88.70;;;;;;5032619;28;20502;-71
2020/12/08 05:15:19;;;;;;;12.67;8.53;;;5.40;88.60;;;;;;5032206;28;20034;-71
2020/12/08 05:17:44;;;;;;;13.83;8.93;;;5.40;88.60;;;;;;5033225;28;20487;-70
2020/12/08 05:20:12;;;;;;;13.10;8.50;;;5.40;88.70;;;;;;5032145;28;20116;-70
2020/12/08 05:22:39;;;;;;;14.40;8.87;;;5.40;89.20;;;;;;5032460;28;20044;-70
2020/12/08 05:25:12;;;;;;;12.90;8.57;;;5.40;88.70;;;;;;5033379;28;20034;-70
2020/12/08 05:27:38;;;;;;;13.90;9.40;;;5.40;88.70;;;;;;5032924;28;20041;-70
2020/12/08 05:30:08;;;;;;;14.30;8.83;;;5.40;88.70;;;;;;5033263;28;20045;-70
2020/12/08 05:32:38;;;;;;;14.25;8.82;;;5.40;88.80;;;;;;5031371;28;20144;-70
2020/12/08 05:35:25;;;;;;;13.73;8.85;;;5.40;88.80;;;;;;5032894;28;20065;-70
2020/12/08 05:37:53;;;;;;;14.30;8.80;;;5.40;88.80;;;;;;5031549;28;20045;-71
2020/12/08 05:40:21;;;;;;;14.00;8.80;;;5.40;88.70;;;;;;5032058;28;20057;-70
2020/12/08 05:42:50;;;;;;;14.63;9.40;;;5.40;88.70;;;;;;5032415;28;20465;-71
2020/12/08 05:45:20;;;;;;;14.77;9.30;;;5.40;88.80;;;;;;5031339;28;20051;-70
2020/12/08 05:47:51;;;;;;;14.68;9.63;;;5.30;88.70;;;;;;5031747;28;20124;-70
2020/12/08 05:50:19;;;;;;;13.83;9.00;;;5.40;89.00;;;;;;5032581;28;20057;-70
2020/12/08 05:52:53;;;;;;;13.87;8.93;;;5.40;88.80;;;;;;5030732;28;20088;-70
2020/12/08 05:55:20;;;;;;;14.73;9.50;;;5.40;88.70;;;;;;5031051;28;20041;-70
2020/12/08 05:57:46;;;;;;;16.40;10.23;;;5.40;89.30;;;;;;5032751;28;20038;-70
2020/12/08 06:00:25;;;;;;;15.00;9.30;;;5.40;88.70;;;;;;5032376;28;20037;-70
2020/12/08 06:03:06;;;;;;;15.70;9.60;;;5.40;88.80;;;;;;5032037;28;20390;-70
2020/12/08 06:05:33;;;;;;;15.83;10.37;;;5.40;88.70;;;;;;5030795;28;20030;-70
2020/12/08 06:07:59;;;;;;;14.60;9.20;;;5.40;88.80;;;;;;5032404;28;20108;-70
2020/12/08 06:10:26;;;;;;;16.63;10.57;;;5.40;88.70;;;;;;5030826;28;20033;-71
2020/12/08 06:13:01;;;;;;;13.90;9.03;;;5.40;88.70;;;;;;5031866;28;20021;-70
2020/12/08 06:15:38;;;;;;;14.70;9.77;;;5.40;88.70;;;;;;5032038;28;20041;-71
2020/12/08 06:18:04;;;;;;;15.87;9.53;;;5.40;88.90;;;;;;5034033;28;20633;-75
2020/12/08 06:20:30;;;;;;;15.37;10.30;;;5.40;88.90;;;;;;5013732;28;20054;-76
2020/12/08 06:22:59;;;;;;;16.07;9.97;;;5.40;88.70;;;;;;5036469;28;20159;-77
2020/12/08 06:25:25;;;;;;;17.10;10.30;;;5.40;88.80;;;;;;5030595;28;20041;-77
2020/12/08 06:28:04;;;;;;;16.60;10.03;;;5.40;88.70;;;;;;5046812;28;20033;-77
2020/12/08 06:30:30;;;;;;;16.43;10.83;;;5.40;88.80;;;;;;5020081;28;20112;-77
2020/12/08 06:32:56;;;;;;;16.17;10.17;;;5.40;88.90;;;;;;5042646;28;20117;-77
2020/12/08 06:35:21;;;;;;;17.93;10.13;;;5.40;88.90;;;;;;5041425;28;20523;-77
2020/12/08 06:37:54;;;;;;;15.30;9.53;;;5.40;88.80;;;;;;5015473;28;20052;-77
2020/12/08 06:40:24;;;;;;;16.17;9.97;;;5.40;88.80;;;;;;5015652;28;20034;-77
2020/12/08 06:42:52;;;;;;;16.45;9.75;;;5.40;88.70;;;;;;5022815;28;20038;-75
2020/12/08 06:45:23;;;;;;;15.10;9.60;;;5.40;88.60;;;;;;5022290;28;20108;-77
2020/12/08 06:47:50;;;;;;;15.73;9.87;;;5.30;88.60;;;;;;5016952;28;20037;-77
2020/12/08 06:50:22;;;;;;;15.30;9.60;;;5.30;88.70;;;;;;5010205;28;20096;-77
2020/12/08 06:52:52;;;;;;;14.90;9.70;;;5.30;88.80;;;;;;5012009;28;20049;-76
2020/12/08 06:55:18;;;;;;;15.82;10.43;;;5.40;88.80;;;;;;5022792;28;20044;-77
2020/12/08 06:57:44;;;;;;;17.10;10.80;;;5.30;88.80;;;;;;5015299;28;20037;-77
2020/12/08 07:00:11;;;;;;;17.07;10.47;;;5.40;88.70;;;;;;5013404;28;20077;-76
2020/12/08 07:02:51;;;;;;;14.93;9.90;;;5.30;88.60;;;;;;5023523;28;20041;-77
2020/12/08 07:05:30;;;;;;;15.60;10.23;;;5.30;88.60;;;;;;5009491;28;20041;-77
2020/12/08 07:08:00;;;;;;;18.53;11.30;;;5.30;88.50;;;;;;4992000;28;20519;-77
2020/12/08 07:10:26;;;;;;;17.52;10.10;;;5.30;88.40;;;;;;5008623;28;20041;-78
2020/12/08 07:12:53;;;;;;;16.50;10.77;;;5.30;88.30;;;;;;5009174;28;20034;-77
2020/12/08 07:15:24;;;;;;;15.70;9.23;;;5.20;88.20;;;;;;5023539;28;20041;-77
2020/12/08 07:18:04;;;;;;;16.20;10.00;;;5.20;88.70;;;;;;5030003;28;20072;-77
2020/12/08 07:20:31;;;;;;;16.98;10.50;;;5.10;88.10;;;;;;5029895;28;20037;-77
2020/12/08 07:23:01;;;;;;;17.00;10.50;;;5.10;88.10;;;;;;5027606;28;20121;-76
2020/12/08 07:25:26;;;;;;;17.92;11.15;;;5.00;88.30;;;;;;5012532;28;20128;-78
2020/12/08 07:27:53;;;;;;;18.40;11.60;;;5.00;88.40;;;;;;5029705;28;20112;-77
2020/12/08 07:30:21;;;;;;;16.97;11.23;;;4.90;88.60;;;;;;5030965;28;20030;-76
2020/12/08 07:32:47;;;;;;;16.03;10.87;;;4.90;88.80;;;;;;5029943;28;20402;-78
2020/12/08 07:35:22;;;;;;;16.70;10.63;;;4.90;88.90;;;;;;5030260;28;20116;-78
2020/12/08 07:37:50;;;;;;;15.57;9.97;;;4.90;89.00;;;;;;5029960;28;20037;-77
2020/12/08 07:40:16;;;;;;;15.40;9.70;;;5.00;89.10;;;;;;5029973;28;20045;-77
2020/12/08 07:42:49;;;;;;;16.47;10.00;;;5.00;89.10;;;;;;5028803;28;20493;-76
2020/12/08 07:45:15;;;;;;;16.30;10.27;;;5.00;88.90;;;;;;5030763;28;20038;-75
2020/12/08 07:47:41;;;;;;;16.43;10.03;;;5.00;88.60;;;;;;5030386;28;20043;-75
2020/12/08 07:50:07;;;;;;;15.37;9.53;;;5.00;88.60;;;;;;5030615;28;20045;-77
2020/12/08 07:52:33;;;;;;;17.53;11.27;;;4.90;88.40;;;;;;5030071;28;20037;-78
2020/12/08 07:54:59;;;;;;;14.90;9.03;;;4.90;88.40;;;;;;5030263;28;20040;-76
2020/12/08 07:57:25;;;;;;;17.83;10.23;;;4.90;88.60;;;;;;5029970;28;20132;-77
2020/12/08 07:59:51;;;;;;;18.20;11.47;;;4.80;88.80;;;;;;5029392;28;20148;-77
2020/12/08 08:02:17;;;;;;;18.37;11.33;;;4.90;89.20;;;;;;5028197;28;20038;-77
2020/12/08 08:04:42;;;;;;;17.17;10.73;;;4.90;89.30;;;;;;5028052;28;20039;-77
2020/12/08 08:07:08;;;;;;;19.07;11.17;;;5.00;89.30;;;;;;5028697;28;20045;-77
2020/12/08 08:09:34;;;;;;;17.33;10.47;;;5.00;89.30;;;;;;5029053;28;20037;-77
2020/12/08 08:12:00;;;;;;;16.80;11.03;;;5.10;89.40;;;;;;5028941;28;20045;-78
2020/12/08 08:14:27;;;;;;;15.67;10.23;;;5.10;89.50;;;;;;5029618;28;20052;-75
2020/12/08 08:16:53;;;;;;;18.10;10.77;;;5.30;89.50;;;;;;5029797;28;20057;-76
2020/12/08 08:19:18;;;;;;;16.73;9.97;;;5.30;89.40;;;;;;5029601;28;20072;-77
2020/12/08 08:21:45;;;;;;;16.93;10.43;;;5.50;89.80;;;;;;5016282;28;20472;-77
2020/12/08 08:24:11;;;;;;;16.30;10.40;;;5.60;90.10;;;;;;5009892;28;20038;-77
2020/12/08 08:26:40;;;;;;;17.83;11.00;;;5.80;89.80;;;;;;5010397;28;20030;-76
2020/12/08 08:29:07;;;;;;;16.50;9.93;;;6.00;89.80;;;;;;5009569;28;20046;-77
2020/12/08 08:31:34;;;;;;;17.07;10.93;;;6.10;89.30;;;;;;5009663;28;20087;-75
2020/12/08 08:34:00;;;;;;;18.60;11.80;;;6.20;88.90;;;;;;5009001;28;20410;-78
2020/12/08 08:36:25;;;;;;;17.10;10.23;;;6.20;88.50;;;;;;5009986;28;20041;-76
2020/12/08 08:38:51;;;;;;;14.83;10.13;;;6.20;88.40;;;;;;5010311;28;20041;-75
2020/12/08 08:41:17;;;;;;;18.37;11.70;;;6.20;88.00;;;;;;5009146;28;20038;-77
2020/12/08 08:43:43;;;;;;;14.53;10.10;;;6.30;88.10;;;;;;5010143;28;20164;-75
2020/12/08 08:46:09;;;;;;;15.37;10.63;;;6.40;87.90;;;;;;5023575;28;20041;-77
2020/12/08 08:48:36;;;;;;;14.63;10.13;;;6.30;87.50;;;;;;5030298;28;20045;-74
2020/12/08 08:51:02;;;;;;;16.83;10.00;;;6.30;87.20;;;;;;5018344;28;20034;-78
2020/12/08 08:53:28;;;;;;;15.60;10.07;;;6.30;87.10;;;;;;5012828;28;20414;-77
2020/12/08 08:55:53;;;;;;;16.57;10.47;;;6.20;86.90;;;;;;5018587;28;20562;-77
2020/12/08 08:58:19;;;;;;;15.20;10.13;;;6.10;87.10;;;;;;5012728;28;20651;-77
2020/12/08 09:00:45;;;;;;;17.37;11.40;;;6.10;87.20;;;;;;5031637;28;20117;-75
2020/12/08 09:03:11;;;;;;;15.27;10.67;;;6.00;87.30;;;;;;5031113;28;20084;-77
2020/12/08 09:05:37;;;;;;;14.83;10.30;;;6.00;87.10;;;;;;5031689;28;20041;-77
2020/12/08 09:08:04;;;;;;;14.90;10.37;;;6.00;87.20;;;;;;5033560;28;20080;-76
2020/12/08 09:10:30;;;;;;;16.10;9.90;;;6.00;87.30;;;;;;5033239;28;20475;-76
2020/12/08 09:12:56;;;;;;;15.10;9.70;;;6.00;87.30;;;;;;5015495;28;20037;-75
2020/12/08 09:15:21;;;;;;;14.77;9.80;;;6.00;87.30;;;;;;5032948;28;20044;-76
2020/12/08 09:17:47;;;;;;;16.43;10.13;;;6.00;87.50;;;;;;5034130;28;20153;-75
2020/12/08 09:20:14;;;;;;;16.60;10.60;;;6.10;87.60;;;;;;5032298;28;20050;-76
2020/12/08 09:22:41;;;;;;;18.30;10.73;;;6.10;87.40;;;;;;5031714;28;20034;-77
2020/12/08 09:25:08;;;;;;;16.13;10.63;;;6.10;87.50;;;;;;5033580;28;20037;-77
2020/12/08 09:27:34;;;;;;;16.20;10.67;;;6.20;87.70;;;;;;5002311;28;20046;-77
2020/12/08 09:29:59;;;;;;;16.00;10.23;;;6.20;87.50;;;;;;4993169;28;20415;-77
2020/12/08 09:32:28;;;;;;;15.70;11.33;;;6.20;87.40;;;;;;4993445;28;20042;-77
2020/12/08 09:34:54;;;;;;;18.07;10.20;;;6.20;87.20;;;;;;4992533;28;20133;-77
2020/12/08 09:37:20;;;;;;;18.80;11.03;;;6.30;87.30;;;;;;5001037;28;20129;-77
2020/12/08 09:39:46;;;;;;;18.27;12.00;;;6.20;87.20;;;;;;4992010;28;20514;-77
2020/12/08 09:42:12;;;;;;;18.33;11.73;;;6.20;86.60;;;;;;4991175;28;20523;-77
2020/12/08 09:44:37;;;;;;;18.20;11.50;;;6.20;86.60;;;;;;4992200;28;20499;-77
2020/12/08 09:47:03;;;;;;;17.63;11.97;;;6.10;86.70;;;;;;5000548;28;20042;-77
2020/12/08 09:49:29;;;;;;;25.40;12.57;;;6.10;86.70;;;;;;5023830;28;20072;-77
2020/12/08 09:51:55;;;;;;;19.87;12.73;;;6.10;86.60;;;;;;5021034;28;20040;-78
2020/12/08 09:54:21;;;;;;;20.50;12.87;;;6.10;86.60;;;;;;5026840;28;20042;-77
2020/12/08 09:56:47;;;;;;;20.17;13.00;;;6.10;86.60;;;;;;4998224;28;20048;-78
2020/12/08 09:59:13;;;;;;;21.30;13.83;;;6.10;86.90;;;;;;5023124;28;20088;-78
2020/12/08 10:01:39;;;;;;;20.00;13.37;;;6.10;87.00;;;;;;5014344;28;20045;-76
2020/12/08 10:04:06;;;;;;;20.43;12.67;;;6.10;87.20;;;;;;5015437;28;20034;-77
2020/12/08 10:06:32;;;;;;;20.07;12.80;;;6.10;87.20;;;;;;5031429;28;20064;-76
2020/12/08 10:08:58;;;;;;;19.63;13.20;;;6.10;87.30;;;;;;5025295;28;20061;-77
2020/12/08 10:11:24;;;;;;;21.73;14.00;;;6.10;87.40;;;;;;5013141;28;20474;-78
2020/12/08 10:13:50;;;;;;;19.93;13.20;;;6.10;87.40;;;;;;5017218;28;20046;-77
2020/12/08 10:16:20;;;;;;;20.60;13.23;;;6.20;87.60;;;;;;5012816;28;20402;-78
2020/12/08 10:18:47;;;;;;;24.37;14.60;;;6.20;87.80;;;;;;5024223;28;20064;-78
2020/12/08 10:21:14;;;;;;;22.57;14.77;;;6.20;87.80;;;;;;5022820;28;20033;-75
2020/12/08 10:23:41;;;;;;;22.13;14.43;;;6.20;87.90;;;;;;5011030;28;20091;-74
2020/12/08 10:26:09;;;;;;;24.63;15.80;;;6.20;87.70;;;;;;5029062;28;20521;-75
2020/12/08 10:28:35;;;;;;;25.40;16.17;;;6.30;87.90;;;;;;5015977;28;20429;-75
2020/12/08 10:31:01;;;;;;;24.40;15.40;;;6.30;88.20;;;;;;5022585;28;20038;-75
2020/12/08 10:33:27;;;;;;;24.70;15.20;;;6.30;88.10;;;;;;5006077;28;20173;-74
2020/12/08 10:35:53;;;;;;;23.77;16.30;;;6.40;87.70;;;;;;5032531;28;20053;-75
2020/12/08 10:38:19;;;;;;;24.47;15.67;;;6.40;87.70;;;;;;5013715;28;20038;-75
2020/12/08 10:40:44;;;;;;;23.60;16.00;;;6.40;87.60;;;;;;5026076;28;20038;-75
2020/12/08 10:43:10;;;;;;;26.00;17.60;;;6.40;87.80;;;;;;5019367;28;20029;-74
2020/12/08 10:45:36;;;;;;;30.57;19.03;;;6.40;87.60;;;;;;5018521;28;20717;-75
2020/12/08 10:48:02;;;;;;;29.13;17.93;;;6.40;87.50;;;;;;5026830;28;20065;-75
2020/12/08 10:50:27;;;;;;;25.80;17.53;;;6.40;87.80;;;;;;4998783;28;20037;-74
2020/12/08 10:52:53;;;;;;;26.37;17.17;;;6.40;87.80;;;;;;5023778;28;20518;-75
2020/12/08 10:55:19;;;;;;;25.90;15.93;;;6.40;87.70;;;;;;5022144;28;20037;-75
2020/12/08 10:57:45;;;;;;;25.93;17.60;;;6.40;87.60;;;;;;5016960;28;20029;-75
2020/12/08 11:00:11;;;;;;;23.63;15.80;;;6.50;87.90;;;;;;5027883;28;20053;-75
2020/12/08 11:02:36;;;;;;;22.47;15.20;;;6.50;88.20;;;;;;5015031;28;20041;-75
2020/12/08 11:05:04;;;;;;;23.23;16.00;;;6.60;88.30;;;;;;5022953;28;20057;-76
2020/12/08 11:07:30;;;;;;;21.53;15.30;;;6.70;88.40;;;;;;5023135;28;20029;-75
2020/12/08 11:09:55;;;;;;;21.63;14.47;;;6.70;88.10;;;;;;5014041;28;20565;-74
2020/12/08 11:12:21;;;;;;;25.53;14.77;;;6.80;88.10;;;;;;5025683;28;20060;-77
2020/12/08 11:14:59;;;;;;;21.63;15.00;;;6.80;87.80;;;;;;5044260;28;20363;-74
2020/12/08 11:17:25;;;;;;;22.43;14.90;;;6.80;87.80;;;;;;5033270;28;20543;-74
2020/12/08 11:19:54;;;;;;;21.67;14.73;;;6.90;87.80;;;;;;5006890;28;20096;-74
2020/12/08 11:22:19;;;;;;;22.27;14.83;;;7.00;88.10;;;;;;5003968;28;20500;-74
2020/12/08 11:24:45;;;;;;;20.13;13.90;;;7.00;88.10;;;;;;5006119;28;20034;-74
2020/12/08 11:27:18;;;;;;;23.23;14.87;;;7.20;88.10;;;;;;5007760;28;20037;-74
2020/12/08 11:29:45;;;;;;;21.33;13.93;;;7.30;88.00;;;;;;5005684;28;20084;-74
2020/12/08 11:32:16;;;;;;;20.83;14.60;;;7.40;87.50;;;;;;5007186;28;20044;-74
2020/12/08 11:34:42;;;;;;;20.73;13.87;;;7.40;87.10;;;;;;5006653;28;20183;-74
2020/12/08 11:37:08;;;;;;;19.00;13.37;;;7.40;87.00;;;;;;5008173;28;20399;-74
2020/12/08 11:39:34;;;;;;;21.60;14.53;;;7.40;87.30;;;;;;5005959;28;20124;-74
2020/12/08 11:42:02;;;;;;;20.97;14.50;;;7.40;86.60;;;;;;5006944;28;20069;-74
2020/12/08 11:44:28;;;;;;;20.03;14.07;;;7.40;86.70;;;;;;5005733;28;20073;-74
2020/12/08 11:46:53;;;;;;;21.07;14.13;;;7.40;86.70;;;;;;5007564;28;20523;-74
2020/12/08 11:49:20;;;;;;;21.37;14.60;;;7.50;86.50;;;;;;4987278;28;20069;-74
2020/12/08 11:51:46;;;;;;;19.93;13.43;;;7.50;86.70;;;;;;5007098;28;20061;-74
2020/12/08 11:54:12;;;;;;;20.13;13.67;;;7.40;85.80;;;;;;5018571;28;20054;-74
2020/12/08 11:56:38;;;;;;;19.60;14.40;;;7.40;85.60;;;;;;5006506;28;20045;-74
2020/12/08 11:59:04;;;;;;;20.27;13.87;;;7.30;85.20;;;;;;5005665;28;20384;-75
2020/12/08 12:01:30;;;;;;;21.53;15.27;;;7.20;85.30;;;;;;5006510;28;20045;-73
2020/12/08 12:03:56;;;;;;;19.43;13.63;;;7.30;86.40;;;;;;5006217;28;20034;-74
2020/12/08 12:06:22;;;;;;;19.73;13.80;;;7.30;85.90;;;;;;5007208;28;20038;-69
2020/12/08 12:08:48;;;;;;;19.87;13.63;;;7.40;85.70;;;;;;5005895;28;20053;-69
2020/12/08 12:11:14;;;;;;;18.60;12.97;;;7.40;86.00;;;;;;5006905;28;20038;-70
2020/12/08 12:13:39;;;;;;;20.13;13.80;;;7.50;85.80;;;;;;5004645;28;20050;-70
2020/12/08 12:16:05;;;;;;;19.70;13.83;;;7.60;85.70;;;;;;5003385;28;20061;-69
2020/12/08 12:18:31;;;;;;;19.67;13.80;;;7.80;86.00;;;;;;5002074;28;20038;-69
2020/12/08 12:20:57;;;;;;;18.77;13.03;;;7.80;84.60;;;;;;5001562;28;20077;-70
2020/12/08 12:23:22;;;;;;;19.93;14.03;;;7.80;84.40;;;;;;5005975;28;20045;-70
2020/12/08 12:25:48;;;;;;;18.53;12.93;;;7.80;84.20;;;;;;4995245;28;20057;-70
2020/12/08 12:28:14;;;;;;;18.37;13.23;;;7.70;83.90;;;;;;4991612;28;20133;-70
2020/12/08 12:30:39;;;;;;;20.17;13.97;;;7.60;84.00;;;;;;4994236;28;20108;-70
2020/12/08 12:33:05;;;;;;;20.07;13.43;;;7.60;84.00;;;;;;4975573;28;20161;-70
2020/12/08 12:35:31;;;;;;;20.17;13.97;;;7.50;84.40;;;;;;4993602;28;20038;-70
2020/12/08 12:37:57;;;;;;;19.63;13.53;;;7.50;83.90;;;;;;4992560;28;20050;-70
2020/12/08 12:40:23;;;;;;;20.03;13.57;;;7.50;84.00;;;;;;4992671;28;20033;-70
2020/12/08 12:42:48;;;;;;;19.27;13.07;;;7.40;84.10;;;;;;4991565;28;20537;-69